Collinsville, Texas
Current Conditions -  °F | °C
As of 2:15 PM on Sunday 23 Nov 2014 (Local Time) from KGYI Reporting Station
Clear Clear  
Wind Chill: 74°   Ceiling: Unl
Heat Index: 74°   Visibility: 10mi
Dew Point: 46°   Wind: 18mph
Humidity: 37%   Direction: 240°WSW
Pressure: 29.35"   Gusts: 26mph
Location:  33.56°N, 96.91°W
Report Text: KGYI 232015Z AUTO 24016G23KT 10SM CLR 23/08 A2935 RMK AO2 T02340079
Loading
Personal Weather Stations






























Interactive Weather Map New forecast layout! Learn more

10-Day Weather Forecast

Advertisements
Track Severe Weather on mobile